Time;durP1;ratioP1;P1;durP2;ratioP2;P2;SDS_P1;SDS_P2;PMS_P1;PMS_P2;Temp;Humidity;BMP_temperature;BMP_pressure;BME280_temperature;BME280_humidity;BME280_pressure;Samples;Min_cycle;Max_cycle;Signal;HPM_P1;HPM_P2
2022/05/26 00:01:13;;;;;;;22.25;14.23;;;13.30;99.90;;;;;;5062561;28;20501;-66
2022/05/26 00:03:41;;;;;;;13.90;11.63;;;13.30;99.90;;;;;;5061542;28;20409;-65
2022/05/26 00:06:09;;;;;;;13.98;10.07;;;13.30;99.90;;;;;;5064812;28;20048;-66
2022/05/26 00:08:39;;;;;;;17.17;10.05;;;13.30;99.90;;;;;;5058751;28;20561;-65
2022/05/26 00:11:09;;;;;;;14.48;8.10;;;13.30;99.90;;;;;;5056109;28;20056;-65
2022/05/26 00:13:37;;;;;;;9.32;6.55;;;13.30;99.90;;;;;;5058862;28;20051;-65
2022/05/26 00:16:03;;;;;;;10.55;6.88;;;13.30;99.90;;;;;;5056154;28;20127;-65
2022/05/26 00:18:30;;;;;;;10.52;6.13;;;13.30;99.90;;;;;;5054327;28;20044;-65
2022/05/26 00:20:56;;;;;;;6.00;5.13;;;13.30;99.90;;;;;;5049788;28;20620;-65
2022/05/26 00:23:21;;;;;;;7.47;4.82;;;13.20;99.90;;;;;;5053094;28;20155;-65
2022/05/26 00:25:47;;;;;;;8.63;4.68;;;13.30;99.90;;;;;;5056094;28;20075;-66
2022/05/26 00:28:13;;;;;;;8.13;4.95;;;13.20;99.90;;;;;;5058525;28;20064;-66
2022/05/26 00:30:39;;;;;;;6.20;5.53;;;13.20;99.90;;;;;;5059073;28;20087;-65
2022/05/26 00:33:06;;;;;;;8.20;5.65;;;13.20;99.90;;;;;;5053742;28;20037;-65
2022/05/26 00:35:34;;;;;;;9.80;5.53;;;13.20;99.90;;;;;;5053822;28;20139;-65
2022/05/26 00:38:03;;;;;;;10.30;6.43;;;13.20;99.90;;;;;;5056634;28;20045;-66
2022/05/26 00:40:29;;;;;;;11.00;6.82;;;13.20;99.90;;;;;;5051626;28;20040;-65
2022/05/26 00:42:54;;;;;;;11.40;7.78;;;13.20;99.90;;;;;;5051002;28;20041;-66
2022/05/26 00:45:20;;;;;;;12.80;7.85;;;13.20;99.90;;;;;;5053456;28;20041;-66
2022/05/26 00:47:47;;;;;;;11.43;8.30;;;13.30;99.90;;;;;;5068094;28;20049;-65
2022/05/26 00:50:24;;;;;;;10.75;8.48;;;13.30;99.90;;;;;;5052338;28;20061;-65
2022/05/26 00:52:59;;;;;;;15.77;11.27;;;13.30;99.90;;;;;;5056976;28;20147;-65
2022/05/26 00:55:29;;;;;;;12.02;9.68;;;13.30;99.90;;;;;;5061363;28;20397;-66
2022/05/26 00:58:28;;;;;;;17.50;13.13;;;13.30;99.90;;;;;;5060623;28;20084;-65
2022/05/26 01:00:55;;;;;;;23.58;15.50;;;13.40;99.90;;;;;;5051916;28;20780;-65
2022/05/26 01:03:32;;;;;;;21.33;15.52;;;13.40;99.90;;;;;;5056564;28;20036;-65
2022/05/26 01:06:17;;;;;;;26.75;16.42;;;13.40;99.90;;;;;;5053260;28;20032;-65
2022/05/26 01:08:58;;;;;;;30.27;16.83;;;13.40;99.90;;;;;;5053693;28;20052;-64
2022/05/26 01:11:26;;;;;;;32.00;21.35;;;13.40;99.90;;;;;;5053536;28;20048;-65
2022/05/26 01:14:01;;;;;;;37.92;21.38;;;13.40;99.90;;;;;;5058691;28;20168;-65
2022/05/26 01:16:41;;;;;;;27.80;18.83;;;13.50;99.90;;;;;;5057365;28;20036;-65
2022/05/26 01:19:41;;;;;;;41.15;23.05;;;13.50;99.90;;;;;;5056967;28;20132;-65
2022/05/26 01:22:09;;;;;;;38.53;23.42;;;13.40;99.90;;;;;;5055965;28;20041;-65
2022/05/26 01:24:53;;;;;;;;;;;13.50;99.90;;;;;;5053776;28;20037;-65
2022/05/26 01:27:31;;;;;;;50.65;25.25;;;13.50;99.90;;;;;;5056598;28;19966;-65
2022/05/26 01:29:57;;;;;;;43.65;24.63;;;13.50;99.90;;;;;;5056758;28;20175;-65
2022/05/26 01:32:23;;;;;;;41.28;25.88;;;13.50;99.90;;;;;;5058821;28;20075;-64
2022/05/26 01:35:07;;;;;;;42.50;24.42;;;13.60;99.90;;;;;;5054146;28;20120;-65
2022/05/26 01:37:53;;;;;;;50.45;26.55;;;13.60;99.90;;;;;;5053601;28;20041;-65
2022/05/26 01:40:33;;;;;;;44.60;25.20;;;13.50;99.90;;;;;;5052205;28;20047;-65
2022/05/26 01:43:09;;;;;;;45.13;24.73;;;13.60;99.90;;;;;;5053760;28;20041;-65
2022/05/26 01:45:59;;;;;;;51.63;26.88;;;13.60;99.90;;;;;;5051288;28;20442;-65
2022/05/26 01:48:35;;;;;;;43.20;24.80;;;13.60;99.90;;;;;;5057200;28;20159;-65
2022/05/26 01:51:02;;;;;;;39.20;25.80;;;13.60;99.90;;;;;;5056181;28;20060;-65
2022/05/26 01:53:44;;;;;;;45.35;26.08;;;13.60;99.90;;;;;;5048958;28;20080;-65
2022/05/26 01:56:28;;;;;;;51.22;26.77;;;13.60;99.90;;;;;;5053846;28;20069;-65
2022/05/26 01:59:07;;;;;;;45.83;24.15;;;13.60;99.90;;;;;;5051947;28;20048;-65
2022/05/26 02:01:38;;;;;;;54.38;24.45;;;13.60;99.90;;;;;;5056092;28;20072;-65
2022/05/26 02:04:11;;;;;;;49.10;22.65;;;13.60;99.90;;;;;;5056221;28;20052;-65
2022/05/26 02:06:41;;;;;;;52.42;26.70;;;13.50;99.90;;;;;;5058760;28;20048;-65
2022/05/26 02:09:11;;;;;;;61.30;26.38;;;13.50;99.90;;;;;;5055495;28;20041;-65
2022/05/26 02:11:54;;;;;;;41.55;21.77;;;13.50;99.90;;;;;;5055511;28;20504;-65
2022/05/26 02:14:29;;;;;;;42.80;21.35;;;13.50;99.90;;;;;;5057556;28;20049;-65
2022/05/26 02:17:14;;;;;;;56.78;23.95;;;13.50;99.90;;;;;;5059296;28;20524;-65
2022/05/26 02:19:58;;;;;;;52.45;22.55;;;13.50;99.90;;;;;;5057361;28;20581;-65
2022/05/26 02:22:30;;;;;;;56.35;27.05;;;13.50;99.90;;;;;;5057594;28;20041;-64
2022/05/26 02:24:59;;;;;;;53.72;25.00;;;13.50;99.90;;;;;;5056262;28;20029;-65
2022/05/26 02:27:29;;;;;;;49.00;25.33;;;13.50;99.90;;;;;;5058735;28;20095;-64
2022/05/26 02:29:59;;;;;;;70.30;28.45;;;13.50;99.90;;;;;;5059557;28;20159;-65
2022/05/26 02:32:33;;;;;;;65.32;27.65;;;13.50;99.90;;;;;;5057612;28;20528;-65
2022/05/26 02:35:01;;;;;;;55.75;23.33;;;13.50;99.90;;;;;;5056652;28;20132;-65
2022/05/26 02:37:30;;;;;;;55.13;25.67;;;13.50;99.90;;;;;;5055614;28;20092;-65
2022/05/26 02:39:55;;;;;;;58.35;26.58;;;13.50;99.90;;;;;;5055824;28;20047;-65
2022/05/26 02:42:24;;;;;;;52.45;26.23;;;13.50;99.90;;;;;;5060869;28;20044;-64
2022/05/26 02:44:51;;;;;;;58.80;24.05;;;13.50;99.90;;;;;;5053198;28;20049;-65
2022/05/26 02:47:42;;;;;;;79.70;27.13;;;13.50;99.90;;;;;;5055216;28;20079;-65
2022/05/26 02:50:16;;;;;;;79.93;27.20;;;13.60;99.90;;;;;;5052678;28;20095;-65
2022/05/26 02:53:22;;;;;;;52.33;24.33;;;13.60;99.90;;;;;;5055113;28;20044;-64
2022/05/26 02:56:20;;;;;;;46.35;26.25;;;13.60;99.90;;;;;;5050508;28;20103;-64
2022/05/26 02:58:52;;;;;;;60.72;25.80;;;13.60;99.90;;;;;;5048179;28;20097;-64
2022/05/26 03:01:33;;;;;;;69.05;25.95;;;13.60;99.90;;;;;;5056029;28;20055;-65
2022/05/26 03:04:11;;;;;;;72.65;25.15;;;13.60;99.90;;;;;;5053719;28;20332;-64
2022/05/26 03:06:52;;;;;;;54.63;23.55;;;13.60;99.90;;;;;;5054031;28;20409;-65
2022/05/26 03:09:19;;;;;;;63.72;25.40;;;13.70;99.90;;;;;;5053314;28;20405;-65
2022/05/26 03:11:51;;;;;;;82.68;26.80;;;13.60;99.90;;;;;;5048021;28;20699;-64
2022/05/26 03:14:19;;;;;;;63.63;23.88;;;13.70;99.90;;;;;;5055025;28;20044;-65
2022/05/26 03:16:45;;;;;;;62.55;23.23;;;13.60;99.90;;;;;;5051657;28;20040;-65
2022/05/26 03:19:11;;;;;;;68.45;26.25;;;13.70;99.90;;;;;;5054159;28;20086;-65
2022/05/26 03:21:37;;;;;;;47.83;21.77;;;13.70;99.90;;;;;;5054953;28;20169;-65
2022/05/26 03:24:04;;;;;;;58.58;22.35;;;13.70;99.90;;;;;;5049902;28;20048;-65
2022/05/26 03:26:29;;;;;;;63.88;21.17;;;13.70;99.90;;;;;;5052965;28;20124;-65
2022/05/26 03:28:55;;;;;;;66.78;22.30;;;13.70;99.90;;;;;;5052812;28;20123;-65
2022/05/26 03:31:21;;;;;;;68.80;21.08;;;13.70;99.90;;;;;;5048039;28;20041;-65
2022/05/26 03:42:16;;;;;;;56.45;17.98;;;13.70;99.90;;;;;;5053363;28;20126;-64
2022/05/26 03:44:44;;;;;;;66.93;21.63;;;13.70;99.90;;;;;;5058356;28;20375;-64
2022/05/26 03:47:09;;;;;;;64.40;19.00;;;13.70;99.90;;;;;;5055483;28;20056;-64
2022/05/26 03:49:35;;;;;;;48.92;16.40;;;13.70;99.90;;;;;;5054801;28;20046;-65
2022/05/26 03:52:01;;;;;;;51.47;17.27;;;13.70;99.90;;;;;;5055827;28;20781;-65
2022/05/26 03:54:27;;;;;;;50.47;17.20;;;13.70;99.90;;;;;;5052030;28;21949;-65
2022/05/26 03:56:53;;;;;;;39.40;15.70;;;13.60;99.90;;;;;;5047891;28;20037;-65
2022/05/26 03:59:19;;;;;;;49.28;16.45;;;13.60;99.90;;;;;;5048026;28;20734;-65
2022/05/26 04:01:45;;;;;;;46.70;15.65;;;13.60;99.90;;;;;;5049053;28;20037;-65
2022/05/26 04:04:11;;;;;;;37.78;14.55;;;13.70;99.90;;;;;;5049373;28;20045;-65
2022/05/26 04:06:37;;;;;;;44.25;14.85;;;13.60;99.90;;;;;;5048407;28;20041;-65
2022/05/26 04:09:03;;;;;;;38.45;14.48;;;13.60;99.90;;;;;;5045140;28;20148;-66
2022/05/26 04:11:30;;;;;;;43.70;16.38;;;13.60;99.90;;;;;;5046974;28;20036;-66
2022/05/26 04:13:55;;;;;;;40.03;14.65;;;13.60;99.90;;;;;;5049207;28;20045;-66
2022/05/26 04:16:22;;;;;;;37.13;14.23;;;13.60;99.90;;;;;;5049144;28;20110;-66
2022/05/26 04:18:48;;;;;;;44.45;14.25;;;13.60;99.90;;;;;;5045200;28;20114;-66
2022/05/26 04:21:14;;;;;;;41.13;13.15;;;13.70;99.90;;;;;;5048902;28;20490;-66
2022/05/26 04:23:40;;;;;;;58.33;16.20;;;13.70;99.90;;;;;;5047387;28;20486;-66
2022/05/26 04:26:07;;;;;;;45.28;14.68;;;13.80;99.90;;;;;;5051850;28;20043;-66
2022/05/26 04:28:34;;;;;;;44.65;15.60;;;13.80;99.90;;;;;;5045965;28;20068;-67
2022/05/26 04:31:00;;;;;;;44.13;13.90;;;13.80;99.90;;;;;;5047879;28;20478;-66
2022/05/26 04:33:26;;;;;;;42.00;13.48;;;13.80;99.90;;;;;;5049154;28;20053;-66
2022/05/26 04:35:53;;;;;;;35.50;12.82;;;13.80;99.90;;;;;;5046048;28;20390;-66
2022/05/26 04:38:19;;;;;;;29.58;13.13;;;13.70;99.90;;;;;;5052218;28;20124;-66
2022/05/26 04:40:54;;;;;;;48.65;13.70;;;13.80;99.90;;;;;;5055157;28;20086;-66
2022/05/26 04:43:20;;;;;;;41.75;13.60;;;13.70;99.90;;;;;;5051151;28;20443;-67
2022/05/26 04:45:47;;;;;;;39.42;13.00;;;13.80;99.90;;;;;;5050343;28;20045;-66
2022/05/26 04:48:13;;;;;;;51.50;11.85;;;13.70;99.90;;;;;;5050832;28;20044;-65
2022/05/26 04:50:39;;;;;;;36.58;9.77;;;13.80;99.90;;;;;;5047436;28;20140;-65
2022/05/26 04:53:05;;;;;;;29.30;12.00;;;13.80;99.90;;;;;;5056561;28;20557;-66
2022/05/26 04:55:30;;;;;;;43.70;12.68;;;13.80;99.90;;;;;;5050941;28;20049;-65
2022/05/26 04:57:57;;;;;;;35.10;10.80;;;13.80;99.90;;;;;;5051911;28;20041;-65
2022/05/26 05:00:23;;;;;;;27.50;11.20;;;13.90;99.90;;;;;;5048099;28;20049;-65
2022/05/26 05:02:48;;;;;;;29.48;11.00;;;13.90;99.90;;;;;;5049594;28;20051;-65
2022/05/26 05:05:14;;;;;;;41.72;11.25;;;13.90;99.90;;;;;;5054935;28;20040;-65
2022/05/26 05:07:40;;;;;;;36.03;10.77;;;13.90;99.90;;;;;;5049480;28;20033;-65
2022/05/26 05:10:06;;;;;;;32.75;11.60;;;13.90;99.90;;;;;;5052129;28;20037;-65
2022/05/26 05:12:32;;;;;;;28.52;10.27;;;13.90;99.90;;;;;;5053549;28;20040;-65
2022/05/26 05:14:58;;;;;;;24.58;9.68;;;13.90;99.90;;;;;;5051405;28;20036;-65
2022/05/26 05:17:26;;;;;;;22.75;8.38;;;13.90;99.90;;;;;;5052082;28;20041;-65
2022/05/26 05:19:52;;;;;;;29.92;7.75;;;13.90;99.90;;;;;;5050374;28;20125;-65
2022/05/26 05:22:23;;;;;;;32.50;8.57;;;13.90;99.90;;;;;;5051821;28;20233;-65
2022/05/26 05:25:01;;;;;;;25.52;8.50;;;13.90;99.90;;;;;;5054440;28;20171;-65
2022/05/26 05:27:44;;;;;;;26.48;8.07;;;14.00;99.90;;;;;;5052011;28;20105;-65
2022/05/26 05:30:20;;;;;;;17.83;6.18;;;13.90;99.90;;;;;;5051367;28;20052;-65
2022/05/26 05:32:54;;;;;;;12.30;6.03;;;13.90;99.90;;;;;;5048163;28;20485;-64
2022/05/26 05:35:28;;;;;;;21.30;6.60;;;13.90;99.90;;;;;;5053459;28;21260;-65
2022/05/26 05:37:56;;;;;;;22.55;6.47;;;13.90;99.90;;;;;;5053870;28;20055;-64
2022/05/26 05:40:22;;;;;;;22.52;6.68;;;13.90;99.90;;;;;;5053159;28;20044;-64
2022/05/26 05:42:48;;;;;;;14.00;5.22;;;14.00;99.90;;;;;;5050512;28;20051;-64
2022/05/26 05:45:14;;;;;;;22.20;4.57;;;14.10;99.90;;;;;;5049728;28;20045;-64
2022/05/26 05:47:40;;;;;;;22.45;5.22;;;14.10;99.90;;;;;;5052809;28;20555;-65
2022/05/26 05:50:06;;;;;;;13.90;4.00;;;14.20;99.90;;;;;;5050978;28;20055;-64
2022/05/26 05:52:36;;;;;;;12.48;5.35;;;14.20;99.90;;;;;;5050278;28;20045;-64
2022/05/26 05:55:04;;;;;;;24.95;5.80;;;14.20;99.90;;;;;;5052680;28;20052;-64
2022/05/26 05:57:31;;;;;;;11.18;5.35;;;14.30;99.90;;;;;;5049967;28;20600;-64
2022/05/26 05:59:56;;;;;;;14.13;4.20;;;14.30;99.90;;;;;;5050784;28;20045;-65
2022/05/26 06:02:23;;;;;;;14.38;4.68;;;14.30;99.90;;;;;;5050250;28;20048;-64
2022/05/26 06:04:48;;;;;;;20.95;4.38;;;14.30;99.90;;;;;;5049679;28;20056;-64
2022/05/26 06:07:16;;;;;;;8.10;3.75;;;14.40;99.90;;;;;;5052750;28;20036;-64
2022/05/26 06:09:42;;;;;;;9.82;3.90;;;14.40;99.90;;;;;;5051062;28;20056;-63
2022/05/26 06:12:10;;;;;;;11.02;3.53;;;14.40;99.90;;;;;;5051750;28;20049;-64
2022/05/26 06:14:36;;;;;;;12.85;3.72;;;14.40;99.90;;;;;;5049866;28;20135;-64
2022/05/26 06:17:02;;;;;;;12.43;3.50;;;14.50;99.90;;;;;;5052701;28;20041;-64
2022/05/26 06:19:28;;;;;;;9.90;3.83;;;14.50;99.90;;;;;;5051342;28;20051;-64
2022/05/26 06:21:54;;;;;;;13.15;3.55;;;14.50;99.90;;;;;;5045617;28;20417;-63
2022/05/26 06:24:23;;;;;;;6.93;3.20;;;14.50;99.90;;;;;;5050453;28;20085;-64
2022/05/26 06:26:49;;;;;;;9.00;3.88;;;14.60;99.90;;;;;;5053097;28;20523;-63
2022/05/26 06:37:28;;;;;;;5.22;3.25;;;14.70;99.90;;;;;;5049832;28;20608;-64
2022/05/26 06:39:55;;;;;;;4.65;2.53;;;14.90;99.90;;;;;;5055407;28;20063;-63
2022/05/26 06:42:24;;;;;;;11.68;4.03;;;15.10;99.90;;;;;;5057335;28;20040;-63
2022/05/26 06:44:50;;;;;;;13.32;3.50;;;15.30;99.90;;;;;;5055234;28;20052;-64
2022/05/26 06:47:19;;;;;;;11.23;3.50;;;15.50;99.90;;;;;;5050511;28;20040;-64
2022/05/26 06:49:45;;;;;;;9.98;2.75;;;15.60;99.90;;;;;;5052869;28;20062;-63
2022/05/26 06:52:13;;;;;;;5.07;2.13;;;15.70;99.90;;;;;;5049905;28;20864;-64
2022/05/26 06:54:41;;;;;;;16.48;3.53;;;15.70;99.90;;;;;;5056296;28;20401;-64
2022/05/26 06:57:08;;;;;;;17.13;2.95;;;15.70;99.90;;;;;;5054179;28;20131;-62
2022/05/26 06:59:35;;;;;;;6.53;3.25;;;15.70;99.90;;;;;;5049056;28;20051;-63
2022/05/26 07:02:01;;;;;;;12.82;2.88;;;15.60;99.90;;;;;;5055856;28;20056;-63
2022/05/26 07:04:27;;;;;;;7.00;2.47;;;15.60;99.90;;;;;;5053670;28;20041;-63
2022/05/26 07:06:54;;;;;;;9.23;2.70;;;15.50;99.90;;;;;;5057371;28;20064;-63
2022/05/26 07:09:21;;;;;;;5.15;3.00;;;15.50;99.90;;;;;;5055263;28;20117;-63
2022/05/26 07:11:47;;;;;;;6.43;2.50;;;15.40;99.90;;;;;;5051448;28;20032;-63
2022/05/26 07:14:13;;;;;;;5.88;2.53;;;15.40;99.90;;;;;;5059771;28;20493;-63
2022/05/26 07:16:40;;;;;;;5.93;2.40;;;15.50;99.90;;;;;;5054444;28;20044;-63
2022/05/26 07:19:05;;;;;;;8.38;2.90;;;15.60;99.90;;;;;;5056634;28;20632;-64
2022/05/26 07:21:31;;;;;;;7.32;2.83;;;15.60;99.90;;;;;;5049050;28;20047;-64
2022/05/26 07:23:57;;;;;;;7.93;3.33;;;15.70;99.90;;;;;;5053939;28;20037;-63
2022/05/26 07:26:24;;;;;;;9.20;3.25;;;15.70;99.90;;;;;;5053727;28;20093;-64
2022/05/26 07:28:53;;;;;;;13.93;3.78;;;15.80;99.90;;;;;;5054482;28;20053;-64
2022/05/26 07:31:19;;;;;;;6.90;2.25;;;15.90;99.90;;;;;;5054075;28;20163;-64
2022/05/26 07:33:46;;;;;;;7.22;2.70;;;16.00;99.90;;;;;;5055308;28;20047;-63
2022/05/26 07:41:16;;;;;;;7.28;2.55;;;16.10;99.90;;;;;;5053757;28;20054;-64
2022/05/26 07:41:44;;;;;;;6.80;2.25;;;16.30;99.90;;;;;;5062244;28;20061;-64
2022/05/26 07:44:10;;;;;;;9.43;3.55;;;16.30;99.90;;;;;;5056405;28;20060;-63
2022/05/26 07:46:36;;;;;;;8.90;2.70;;;16.30;99.90;;;;;;5057842;28;20120;-64
2022/05/26 07:49:02;;;;;;;7.85;2.97;;;16.30;99.90;;;;;;5058463;28;20040;-64
2022/05/26 07:51:28;;;;;;;6.97;2.42;;;16.40;99.90;;;;;;5052090;28;20123;-64
2022/05/26 07:53:53;;;;;;;5.57;2.47;;;16.70;99.90;;;;;;5056915;28;20123;-64
2022/05/26 07:56:20;;;;;;;6.63;2.67;;;16.80;99.90;;;;;;5059308;28;20029;-64
2022/05/26 07:58:47;;;;;;;8.55;3.30;;;16.90;99.90;;;;;;5053457;28;20041;-64
2022/05/26 08:01:14;;;;;;;14.20;3.00;;;16.90;99.90;;;;;;5048030;28;20063;-64
2022/05/26 08:03:39;;;;;;;6.13;2.97;;;16.90;99.90;;;;;;5051450;28;20094;-64
2022/05/26 08:06:06;;;;;;;6.97;3.40;;;17.00;99.90;;;;;;5059758;28;20045;-64
2022/05/26 08:08:33;;;;;;;4.85;2.88;;;17.10;99.90;;;;;;5056856;28;20041;-64
2022/05/26 08:10:59;;;;;;;8.70;2.85;;;17.20;99.90;;;;;;5059759;28;20040;-65
2022/05/26 08:13:27;;;;;;;12.80;3.05;;;17.40;99.90;;;;;;5057098;28;20066;-64
2022/05/26 08:15:53;;;;;;;7.78;3.13;;;17.50;99.90;;;;;;5056342;28;20152;-65
2022/05/26 08:18:19;;;;;;;11.82;3.25;;;17.60;99.90;;;;;;5053580;28;20128;-65
2022/05/26 08:20:45;;;;;;;5.32;2.28;;;17.90;99.90;;;;;;5054111;28;20039;-64
2022/05/26 08:23:12;;;;;;;6.75;2.67;;;18.20;99.90;;;;;;5058707;28;20125;-64
2022/05/26 08:25:38;;;;;;;6.53;2.22;;;18.50;99.90;;;;;;5062114;28;20068;-65
2022/05/26 08:28:05;;;;;;;49.60;5.90;;;18.60;99.90;;;;;;5055849;28;20052;-65
2022/05/26 08:30:32;;;;;;;5.63;2.13;;;18.70;99.90;;;;;;5054340;28;20069;-65
2022/05/26 08:32:57;;;;;;;7.07;2.30;;;18.60;99.90;;;;;;5056799;28;20052;-65
2022/05/26 08:35:24;;;;;;;8.75;2.25;;;18.50;99.90;;;;;;5052271;28;20432;-65
2022/05/26 08:37:49;;;;;;;6.90;2.50;;;18.30;99.90;;;;;;5057764;28;20045;-65
2022/05/26 08:40:29;;;;;;;6.50;3.15;;;18.10;99.90;;;;;;5060767;28;20493;-67
2022/05/26 08:42:55;;;;;;;8.00;2.10;;;18.20;99.90;;;;;;5060831;28;20047;-64
2022/05/26 08:45:20;;;;;;;8.20;1.98;;;18.20;99.90;;;;;;5057859;28;20041;-65
2022/05/26 08:47:48;;;;;;;9.80;2.42;;;18.40;99.90;;;;;;5061909;28;20042;-65
2022/05/26 08:50:25;;;;;;;8.13;2.03;;;18.60;99.90;;;;;;5060076;28;20056;-66
2022/05/26 08:53:07;;;;;;;7.20;1.97;;;18.80;99.90;;;;;;5060079;28;20041;-66
2022/05/26 08:55:48;;;;;;;7.50;1.80;;;19.10;99.90;;;;;;5057274;28;20856;-67
2022/05/26 08:58:19;;;;;;;6.10;2.55;;;19.40;99.90;;;;;;5059926;28;20053;-67
2022/05/26 09:00:47;;;;;;;6.35;2.22;;;19.40;99.90;;;;;;5054254;28;20669;-66
2022/05/26 09:03:24;;;;;;;6.82;1.98;;;19.30;99.90;;;;;;5052691;28;20051;-69
2022/05/26 09:06:02;;;;;;;10.90;3.00;;;19.30;99.90;;;;;;5059116;28;20091;-69
2022/05/26 09:14:02;;;;;;;4.10;1.58;;;19.20;99.90;;;;;;5050356;28;20049;-66
2022/05/26 09:16:31;;;;;;;2.60;1.63;;;19.10;99.90;;;;;;5049888;28;20132;-67
2022/05/26 09:19:13;;;;;;;4.40;1.77;;;19.00;99.90;;;;;;5050016;28;20048;-67
2022/05/26 09:21:40;;;;;;;5.20;2.10;;;18.80;99.90;;;;;;5053595;28;20036;-65
2022/05/26 09:24:29;;;;;;;3.95;1.98;;;18.70;99.90;;;;;;5062646;28;20102;-65
2022/05/26 09:27:18;;;;;;;6.38;2.38;;;18.70;99.90;;;;;;5052904;28;20064;-65
2022/05/26 09:29:44;;;;;;;10.15;1.85;;;18.60;99.90;;;;;;5049418;28;20043;-66
2022/05/26 09:32:17;;;;;;;10.15;2.45;;;18.40;99.90;;;;;;5067280;28;20044;-66
2022/05/26 09:35:00;;;;;;;248.20;24.85;;;18.20;99.90;;;;;;5064907;28;20049;-66
2022/05/26 09:37:49;;;;;;;452.80;60.25;;;18.30;99.90;;;;;;5047732;28;20041;-65
2022/05/26 09:40:33;;;;;;;9.32;2.63;;;18.60;99.90;;;;;;5053470;28;20075;-66
2022/05/26 09:43:06;;;;;;;139.27;11.38;;;18.70;99.90;;;;;;5060272;28;20032;-66
2022/05/26 09:45:44;;;;;;;7.45;2.47;;;18.80;99.90;;;;;;5052403;28;20045;-66
2022/05/26 09:48:17;;;;;;;9.45;2.35;;;19.00;99.90;;;;;;5058526;28;20059;-65
2022/05/26 09:50:48;;;;;;;4.53;2.70;;;18.80;99.90;;;;;;5067879;28;20799;-66
2022/05/26 09:53:28;;;;;;;2.25;1.67;;;18.70;99.90;;;;;;5053673;28;20476;-65
2022/05/26 09:55:55;;;;;;;6.68;2.38;;;18.80;99.90;;;;;;5067027;28;20593;-65
2022/05/26 09:58:36;;;;;;;5.15;1.67;;;18.80;99.90;;;;;;5053031;28;20160;-65
2022/05/26 10:01:06;;;;;;;8.32;2.05;;;18.90;99.90;;;;;;5049396;28;20040;-65
2022/05/26 10:03:49;;;;;;;5.28;1.73;;;18.90;99.90;;;;;;5067531;28;20434;-65
2022/05/26 10:06:35;;;;;;;3.53;1.23;;;18.90;99.90;;;;;;5064583;28;20443;-65
2022/05/26 10:09:15;;;;;;;7.70;2.05;;;19.30;98.20;;;;;;5055890;28;20048;-65
2022/05/26 10:11:47;;;;;;;6.55;2.13;;;19.30;99.90;;;;;;5056527;28;20425;-65
2022/05/26 10:14:26;;;;;;;7.05;2.00;;;19.20;99.90;;;;;;5063873;28;20047;-65
2022/05/26 10:17:23;;;;;;;8.02;1.77;;;19.00;99.90;;;;;;5068403;28;20045;-65
2022/05/26 10:20:26;;;;;;;2.80;1.08;;;18.90;99.90;;;;;;5049135;28;20045;-64
2022/05/26 10:23:10;;;;;;;4.85;1.40;;;18.90;99.90;;;;;;5060889;28;20052;-65
2022/05/26 10:25:38;;;;;;;3.20;1.70;;;19.20;99.90;;;;;;5047760;28;20049;-65
2022/05/26 10:28:25;;;;;;;4.22;1.80;;;19.40;99.90;;;;;;5054162;28;20068;-65
2022/05/26 10:31:20;;;;;;;6.38;1.77;;;19.50;99.90;;;;;;5056468;28;20075;-65
2022/05/26 10:34:03;;;;;;;5.47;1.80;;;19.30;99.90;;;;;;5055288;28;20045;-65
2022/05/26 10:36:44;;;;;;;5.15;2.30;;;19.10;99.90;;;;;;5053388;28;20049;-65
2022/05/26 10:39:40;;;;;;;6.78;2.55;;;19.10;99.90;;;;;;5054212;28;20083;-65
2022/05/26 10:42:30;;;;;;;1.48;1.23;;;19.00;99.90;;;;;;5057568;28;20128;-65
2022/05/26 10:45:12;;;;;;;5.30;2.63;;;19.10;99.90;;;;;;5052133;28;20497;-65
2022/05/26 10:47:47;;;;;;;11.57;2.47;;;19.20;99.90;;;;;;5059424;28;20049;-65
2022/05/26 10:50:39;;;;;;;7.43;2.58;;;19.10;99.90;;;;;;5065146;28;20056;-65
2022/05/26 10:53:25;;;;;;;10.77;2.53;;;19.30;99.90;;;;;;5065021;28;20053;-65
2022/05/26 10:56:03;;;;;;;2.42;2.03;;;19.40;99.90;;;;;;5052304;28;20052;-65
2022/05/26 10:58:34;;;;;;;6.15;1.98;;;19.30;99.90;;;;;;5057414;28;20067;-65
2022/05/26 11:01:08;;;;;;;5.75;2.92;;;19.00;99.90;;;;;;5049644;28;20047;-65
2022/05/26 11:03:43;;;;;;;4.40;2.47;;;18.80;99.90;;;;;;5058757;28;20069;-65
2022/05/26 11:06:22;;;;;;;9.35;2.42;;;18.70;99.90;;;;;;5052594;28;20132;-66
2022/05/26 11:08:58;;;;;;;4.97;2.30;;;18.60;99.90;;;;;;5051534;28;20062;-65
2022/05/26 11:11:33;;;;;;;9.13;3.17;;;18.70;99.90;;;;;;5054109;28;20040;-65
2022/05/26 11:14:04;;;;;;;5.03;2.95;;;18.60;99.90;;;;;;5067379;28;20048;-65
2022/05/26 11:19:29;;;;;;;7.75;3.42;;;18.50;99.90;;;;;;5050748;28;20056;-65
2022/05/26 11:21:55;;;;;;;7.03;4.00;;;18.40;99.90;;;;;;5053937;28;20055;-65
2022/05/26 11:24:23;;;;;;;5.30;3.42;;;18.30;99.90;;;;;;5047648;28;20123;-65
2022/05/26 11:26:55;;;;;;;4.32;3.38;;;18.20;99.90;;;;;;5065204;28;20080;-65
2022/05/26 11:29:29;;;;;;;9.35;3.47;;;18.20;99.90;;;;;;5067058;28;20524;-65
2022/05/26 11:38:08;;;;;;;4.75;3.78;;;18.10;99.90;;;;;;5049641;28;20048;-65
2022/05/26 11:41:00;;;;;;;7.68;3.50;;;18.10;99.90;;;;;;5046787;28;20132;-65
2022/05/26 11:43:33;;;;;;;12.32;4.13;;;18.10;99.90;;;;;;5046663;28;20079;-65
2022/05/26 11:46:00;;;;;;;6.72;3.53;;;18.00;99.90;;;;;;5061350;28;20663;-65
2022/05/26 11:48:31;;;;;;;7.85;3.28;;;18.10;99.90;;;;;;5065647;28;20078;-65
2022/05/26 11:51:12;;;;;;;6.03;4.10;;;18.10;99.90;;;;;;5011770;28;1052289;-65
2022/05/26 11:53:41;;;;;;;6.45;4.25;;;18.10;99.90;;;;;;5046854;28;20059;-65
2022/05/26 11:56:29;;;;;;;5.45;3.63;;;18.10;99.90;;;;;;5053250;28;20048;-65
2022/05/26 11:59:13;;;;;;;;;;;18.00;99.90;;;;;;5056108;28;20184;-66
2022/05/26 12:01:39;;;;;;;7.47;4.22;;;18.00;99.90;;;;;;5047631;28;19925;-65
2022/05/26 12:04:26;;;;;;;7.90;4.38;;;18.10;99.90;;;;;;5052600;28;20062;-65
2022/05/26 12:06:59;;;;;;;10.52;3.90;;;18.20;99.90;;;;;;5047005;28;20045;-65
2022/05/26 12:09:42;;;;;;;8.38;3.72;;;18.10;99.90;;;;;;5049226;28;20102;-65
2022/05/26 12:12:27;;;;;;;10.52;4.07;;;18.00;99.90;;;;;;5068045;28;20445;-65
2022/05/26 12:14:56;;;;;;;5.40;3.78;;;18.00;99.90;;;;;;5056539;28;20047;-65
2022/05/26 12:17:31;;;;;;;9.10;3.85;;;18.30;99.90;;;;;;5052226;28;20044;-65
2022/05/26 12:20:09;;;;;;;8.05;4.07;;;18.50;99.90;;;;;;5046729;28;20048;-65
2022/05/26 12:22:51;;;;;;;12.30;3.63;;;18.50;99.90;;;;;;5054813;28;20056;-64
2022/05/26 12:25:33;;;;;;;7.85;3.40;;;18.50;99.90;;;;;;5056949;28;20045;-65
2022/05/26 12:28:03;;;;;;;11.80;4.00;;;18.40;99.90;;;;;;5048517;28;20107;-65
2022/05/26 12:30:44;;;;;;;18.45;3.53;;;18.30;99.90;;;;;;5046647;28;20145;-65
2022/05/26 12:33:18;;;;;;;8.48;3.20;;;18.30;99.90;;;;;;5047040;28;20493;-65
2022/05/26 12:35:55;;;;;;;6.68;3.78;;;18.40;99.90;;;;;;5048420;28;20118;-64
2022/05/26 12:38:34;;;;;;;5.85;3.60;;;18.40;99.90;;;;;;5047236;28;20106;-65
2022/05/26 12:41:20;;;;;;;9.52;3.30;;;18.40;99.90;;;;;;5051270;28;20386;-65
2022/05/26 12:44:11;;;;;;;26.50;4.40;;;18.40;99.90;;;;;;5050650;28;20091;-64
2022/05/26 12:47:03;;;;;;;16.58;4.38;;;18.50;99.90;;;;;;5063075;28;20054;-65
2022/05/26 12:49:48;;;;;;;6.45;3.22;;;18.50;99.90;;;;;;5066020;28;20059;-65
2022/05/26 12:52:26;;;;;;;8.68;3.65;;;18.50;99.90;;;;;;5053148;28;20059;-65
2022/05/26 12:55:13;;;;;;;5.43;3.47;;;18.50;99.90;;;;;;5047026;28;20107;-65
2022/05/26 12:57:47;;;;;;;6.53;2.90;;;18.70;99.90;;;;;;5064640;28;20062;-65
2022/05/26 13:00:28;;;;;;;8.60;3.20;;;18.90;99.90;;;;;;5059762;28;20041;-64
2022/05/26 13:03:01;;;;;;;5.10;2.30;;;18.90;99.90;;;;;;5050805;28;20048;-65
2022/05/26 13:05:30;;;;;;;12.13;4.05;;;18.90;99.90;;;;;;5061770;28;20174;-65
2022/05/26 13:07:57;;;;;;;10.95;3.20;;;18.90;99.90;;;;;;5060467;28;20060;-65
2022/05/26 13:10:28;;;;;;;8.43;3.25;;;19.00;99.90;;;;;;5050195;28;20052;-65
2022/05/26 13:12:54;;;;;;;8.63;2.83;;;19.10;99.90;;;;;;5055351;28;20094;-65
2022/05/26 13:15:23;;;;;;;9.93;3.45;;;19.20;99.90;;;;;;5058429;28;20075;-65
2022/05/26 13:17:49;;;;;;;9.57;3.35;;;19.20;99.90;;;;;;5056373;28;20037;-64
2022/05/26 13:20:34;;;;;;;6.32;3.03;;;19.20;99.90;;;;;;5059343;28;20036;-64
2022/05/26 13:23:01;;;;;;;9.82;3.15;;;19.30;99.90;;;;;;5047864;28;20044;-64
2022/05/26 13:25:29;;;;;;;9.50;4.72;;;19.30;99.90;;;;;;5058497;28;20562;-64
2022/05/26 13:28:00;;;;;;;10.10;3.30;;;19.30;99.90;;;;;;5080831;28;20398;-65
2022/05/26 13:33:47;;;;;;;7.47;2.50;;;19.30;99.90;;;;;;5049553;28;20136;-64
2022/05/26 13:36:35;;;;;;;8.85;2.92;;;19.30;99.90;;;;;;5053154;28;20115;-65
2022/05/26 13:39:10;;;;;;;11.45;4.22;;;19.20;99.90;;;;;;5050004;28;20057;-64
2022/05/26 13:41:37;;;;;;;15.27;3.55;;;19.20;99.90;;;;;;5049745;28;20048;-64